sensor_id;sensor_type;location;lat;lon;timestamp;temperature;humidity
16879;DHT22;8556;52.218;9.884;2023-08-17T00:00:54;18.60;99.90
16879;DHT22;8556;52.218;9.884;2023-08-17T00:03:21;18.70;99.90
16879;DHT22;8556;52.218;9.884;2023-08-17T00:05:48;18.60;99.90
16879;DHT22;8556;52.218;9.884;2023-08-17T00:08:15;18.60;99.90
16879;DHT22;8556;52.218;9.884;2023-08-17T00:10:42;18.60;99.90
16879;DHT22;8556;52.218;9.884;2023-08-17T00:13:09;18.70;99.90
16879;DHT22;8556;52.218;9.884;2023-08-17T00:15:37;18.60;99.90
16879;DHT22;8556;52.218;9.884;2023-08-17T00:18:05;18.60;99.90
16879;DHT22;8556;52.218;9.884;2023-08-17T00:20:32;18.30;99.90
16879;DHT22;8556;52.218;9.884;2023-08-17T00:22:59;18.20;99.90
16879;DHT22;8556;52.218;9.884;2023-08-17T00:25:26;18.20;99.90
16879;DHT22;8556;52.218;9.884;2023-08-17T00:27:52;18.20;99.90
16879;DHT22;8556;52.218;9.884;2023-08-17T00:30:19;18.30;99.90
16879;DHT22;8556;52.218;9.884;2023-08-17T00:32:46;18.20;99.90
16879;DHT22;8556;52.218;9.884;2023-08-17T00:35:15;18.00;99.90
16879;DHT22;8556;52.218;9.884;2023-08-17T00:37:41;17.90;99.90
16879;DHT22;8556;52.218;9.884;2023-08-17T00:40:09;17.90;99.90
16879;DHT22;8556;52.218;9.884;2023-08-17T00:42:36;17.80;99.90
16879;DHT22;8556;52.218;9.884;2023-08-17T00:45:04;17.70;99.90
16879;DHT22;8556;52.218;9.884;2023-08-17T00:47:31;17.60;99.90
16879;DHT22;8556;52.218;9.884;2023-08-17T00:49:58;17.60;99.90
16879;DHT22;8556;52.218;9.884;2023-08-17T00:52:27;17.60;99.90
16879;DHT22;8556;52.218;9.884;2023-08-17T00:54:55;17.50;99.90
16879;DHT22;8556;52.218;9.884;2023-08-17T00:57:23;17.50;99.90
16879;DHT22;8556;52.218;9.884;2023-08-17T00:59:50;17.40;99.90
16879;DHT22;8556;52.218;9.884;2023-08-17T01:02:18;17.50;99.90
16879;DHT22;8556;52.218;9.884;2023-08-17T01:04:45;17.50;99.90
16879;DHT22;8556;52.218;9.884;2023-08-17T01:07:12;17.40;99.90
16879;DHT22;8556;52.218;9.884;2023-08-17T01:09:40;17.20;99.90
16879;DHT22;8556;52.218;9.884;2023-08-17T01:15:01;16.90;99.90
16879;DHT22;8556;52.218;9.884;2023-08-17T01:17:33;16.80;99.90
16879;DHT22;8556;52.218;9.884;2023-08-17T01:20:02;16.80;99.90
16879;DHT22;8556;52.218;9.884;2023-08-17T01:22:30;16.90;99.90
16879;DHT22;8556;52.218;9.884;2023-08-17T01:25:00;16.70;99.90
16879;DHT22;8556;52.218;9.884;2023-08-17T01:27:36;16.70;99.90
16879;DHT22;8556;52.218;9.884;2023-08-17T01:30:04;16.60;99.90
16879;DHT22;8556;52.218;9.884;2023-08-17T01:32:36;16.50;99.90
16879;DHT22;8556;52.218;9.884;2023-08-17T01:35:11;16.60;99.90
16879;DHT22;8556;52.218;9.884;2023-08-17T01:37:43;16.60;99.90
16879;DHT22;8556;52.218;9.884;2023-08-17T01:40:12;16.60;99.90
16879;DHT22;8556;52.218;9.884;2023-08-17T01:42:41;16.60;99.90
16879;DHT22;8556;52.218;9.884;2023-08-17T01:45:08;16.50;99.90
16879;DHT22;8556;52.218;9.884;2023-08-17T01:47:35;16.60;99.90
16879;DHT22;8556;52.218;9.884;2023-08-17T01:50:02;16.70;99.90
16879;DHT22;8556;52.218;9.884;2023-08-17T01:52:29;16.60;99.90
16879;DHT22;8556;52.218;9.884;2023-08-17T01:54:55;16.60;99.90
16879;DHT22;8556;52.218;9.884;2023-08-17T01:57:24;16.60;99.90
16879;DHT22;8556;52.218;9.884;2023-08-17T01:59:50;16.70;99.90
16879;DHT22;8556;52.218;9.884;2023-08-17T02:02:17;16.70;99.90
16879;DHT22;8556;52.218;9.884;2023-08-17T02:04:44;16.70;99.90
16879;DHT22;8556;52.218;9.884;2023-08-17T02:07:11;16.70;99.90
16879;DHT22;8556;52.218;9.884;2023-08-17T02:09:37;16.70;99.90
16879;DHT22;8556;52.218;9.884;2023-08-17T02:12:05;16.70;99.90
16879;DHT22;8556;52.218;9.884;2023-08-17T02:14:35;16.80;99.90
16879;DHT22;8556;52.218;9.884;2023-08-17T02:17:02;16.90;99.90
16879;DHT22;8556;52.218;9.884;2023-08-17T02:19:30;16.80;99.90
16879;DHT22;8556;52.218;9.884;2023-08-17T02:21:58;16.80;99.90
16879;DHT22;8556;52.218;9.884;2023-08-17T02:24:25;16.90;99.90
16879;DHT22;8556;52.218;9.884;2023-08-17T02:26:51;16.70;99.90
16879;DHT22;8556;52.218;9.884;2023-08-17T02:29:18;16.80;99.90
16879;DHT22;8556;52.218;9.884;2023-08-17T02:31:46;16.80;99.90
16879;DHT22;8556;52.218;9.884;2023-08-17T02:34:13;16.90;99.90
16879;DHT22;8556;52.218;9.884;2023-08-17T02:36:41;16.90;99.90
16879;DHT22;8556;52.218;9.884;2023-08-17T02:39:08;16.80;99.90
16879;DHT22;8556;52.218;9.884;2023-08-17T02:41:34;16.80;99.90
16879;DHT22;8556;52.218;9.884;2023-08-17T02:44:01;16.80;99.90
16879;DHT22;8556;52.218;9.884;2023-08-17T02:46:28;16.90;99.90
16879;DHT22;8556;52.218;9.884;2023-08-17T02:48:57;16.90;99.90
16879;DHT22;8556;52.218;9.884;2023-08-17T02:51:23;16.80;99.90
16879;DHT22;8556;52.218;9.884;2023-08-17T02:53:50;16.80;99.90
16879;DHT22;8556;52.218;9.884;2023-08-17T02:56:17;16.80;99.90
16879;DHT22;8556;52.218;9.884;2023-08-17T02:58:44;17.00;99.90
16879;DHT22;8556;52.218;9.884;2023-08-17T03:01:10;16.90;99.90
16879;DHT22;8556;52.218;9.884;2023-08-17T03:03:37;16.90;99.90
16879;DHT22;8556;52.218;9.884;2023-08-17T03:06:06;16.90;99.90
16879;DHT22;8556;52.218;9.884;2023-08-17T03:08:33;16.90;99.90
16879;DHT22;8556;52.218;9.884;2023-08-17T03:11:00;17.00;99.90
16879;DHT22;8556;52.218;9.884;2023-08-17T03:13:26;17.00;99.90
16879;DHT22;8556;52.218;9.884;2023-08-17T03:15:54;17.00;99.90
16879;DHT22;8556;52.218;9.884;2023-08-17T03:18:21;17.10;99.90
16879;DHT22;8556;52.218;9.884;2023-08-17T03:20:48;17.00;99.90
16879;DHT22;8556;52.218;9.884;2023-08-17T03:23:16;17.10;99.90
16879;DHT22;8556;52.218;9.884;2023-08-17T03:25:43;17.10;99.90
16879;DHT22;8556;52.218;9.884;2023-08-17T03:28:11;17.10;99.90
16879;DHT22;8556;52.218;9.884;2023-08-17T03:30:41;17.10;99.90
16879;DHT22;8556;52.218;9.884;2023-08-17T03:33:08;17.10;99.90
16879;DHT22;8556;52.218;9.884;2023-08-17T03:35:35;17.10;99.90
16879;DHT22;8556;52.218;9.884;2023-08-17T03:38:02;17.10;99.90
16879;DHT22;8556;52.218;9.884;2023-08-17T03:40:30;17.20;99.90
16879;DHT22;8556;52.218;9.884;2023-08-17T03:42:57;17.20;99.90
16879;DHT22;8556;52.218;9.884;2023-08-17T03:45:24;17.20;99.90
16879;DHT22;8556;52.218;9.884;2023-08-17T03:47:51;17.20;99.90
16879;DHT22;8556;52.218;9.884;2023-08-17T03:50:17;17.30;99.90
16879;DHT22;8556;52.218;9.884;2023-08-17T03:52:44;17.20;99.90
16879;DHT22;8556;52.218;9.884;2023-08-17T03:55:11;17.20;99.90
16879;DHT22;8556;52.218;9.884;2023-08-17T03:57:39;17.20;99.90
16879;DHT22;8556;52.218;9.884;2023-08-17T04:00:07;17.30;99.90
16879;DHT22;8556;52.218;9.884;2023-08-17T04:02:35;17.30;99.90
16879;DHT22;8556;52.218;9.884;2023-08-17T04:05:02;17.20;99.90
16879;DHT22;8556;52.218;9.884;2023-08-17T04:07:29;17.30;99.90
16879;DHT22;8556;52.218;9.884;2023-08-17T04:09:56;17.30;99.90
16879;DHT22;8556;52.218;9.884;2023-08-17T04:12:23;17.30;99.90
16879;DHT22;8556;52.218;9.884;2023-08-17T04:14:51;17.30;99.90
16879;DHT22;8556;52.218;9.884;2023-08-17T04:17:18;17.40;99.90
16879;DHT22;8556;52.218;9.884;2023-08-17T04:19:46;17.40;99.90
16879;DHT22;8556;52.218;9.884;2023-08-17T04:22:13;17.40;99.90
16879;DHT22;8556;52.218;9.884;2023-08-17T04:24:40;17.40;99.90
16879;DHT22;8556;52.218;9.884;2023-08-17T04:27:06;17.50;99.90
16879;DHT22;8556;52.218;9.884;2023-08-17T04:29:33;17.50;99.90
16879;DHT22;8556;52.218;9.884;2023-08-17T04:32:02;17.50;99.90
16879;DHT22;8556;52.218;9.884;2023-08-17T04:34:29;17.60;99.90
16879;DHT22;8556;52.218;9.884;2023-08-17T04:36:55;17.50;99.90
16879;DHT22;8556;52.218;9.884;2023-08-17T04:39:22;17.50;99.90
16879;DHT22;8556;52.218;9.884;2023-08-17T04:41:49;17.60;99.90
16879;DHT22;8556;52.218;9.884;2023-08-17T04:44:16;17.50;99.90
16879;DHT22;8556;52.218;9.884;2023-08-17T04:46:43;17.40;99.90
16879;DHT22;8556;52.218;9.884;2023-08-17T04:49:11;17.60;99.90
16879;DHT22;8556;52.218;9.884;2023-08-17T04:51:38;17.60;99.90
16879;DHT22;8556;52.218;9.884;2023-08-17T04:54:05;17.60;99.90
16879;DHT22;8556;52.218;9.884;2023-08-17T04:56:31;17.60;99.90
16879;DHT22;8556;52.218;9.884;2023-08-17T04:58:59;17.60;99.90
16879;DHT22;8556;52.218;9.884;2023-08-17T05:01:26;17.60;99.90
16879;DHT22;8556;52.218;9.884;2023-08-17T05:03:53;17.50;99.90
16879;DHT22;8556;52.218;9.884;2023-08-17T05:06:21;17.70;99.90
16879;DHT22;8556;52.218;9.884;2023-08-17T05:08:48;17.60;99.90
16879;DHT22;8556;52.218;9.884;2023-08-17T05:11:15;17.70;99.90
16879;DHT22;8556;52.218;9.884;2023-08-17T05:13:42;17.70;99.90
16879;DHT22;8556;52.218;9.884;2023-08-17T05:16:09;17.80;99.90
16879;DHT22;8556;52.218;9.884;2023-08-17T05:18:35;17.70;99.90
16879;DHT22;8556;52.218;9.884;2023-08-17T05:21:02;17.70;99.90
16879;DHT22;8556;52.218;9.884;2023-08-17T05:23:31;17.70;99.90
16879;DHT22;8556;52.218;9.884;2023-08-17T05:25:57;17.70;99.90
16879;DHT22;8556;52.218;9.884;2023-08-17T05:28:24;17.80;99.90
16879;DHT22;8556;52.218;9.884;2023-08-17T05:30:51;17.80;99.90
16879;DHT22;8556;52.218;9.884;2023-08-17T05:33:19;17.80;99.90
16879;DHT22;8556;52.218;9.884;2023-08-17T05:35:45;17.80;99.90
16879;DHT22;8556;52.218;9.884;2023-08-17T05:38:12;17.80;99.90
16879;DHT22;8556;52.218;9.884;2023-08-17T05:40:40;17.90;99.90
16879;DHT22;8556;52.218;9.884;2023-08-17T05:43:07;17.80;99.90
16879;DHT22;8556;52.218;9.884;2023-08-17T05:45:35;17.80;99.90
16879;DHT22;8556;52.218;9.884;2023-08-17T05:48:03;17.90;99.90
16879;DHT22;8556;52.218;9.884;2023-08-17T05:50:30;17.90;99.90
16879;DHT22;8556;52.218;9.884;2023-08-17T05:52:57;17.90;99.90
16879;DHT22;8556;52.218;9.884;2023-08-17T05:55:24;17.90;99.90
16879;DHT22;8556;52.218;9.884;2023-08-17T05:57:52;17.90;99.90
16879;DHT22;8556;52.218;9.884;2023-08-17T06:00:19;17.90;99.90
16879;DHT22;8556;52.218;9.884;2023-08-17T06:02:45;18.00;99.90
16879;DHT22;8556;52.218;9.884;2023-08-17T06:05:15;17.90;99.90
16879;DHT22;8556;52.218;9.884;2023-08-17T06:07:42;17.90;99.90
16879;DHT22;8556;52.218;9.884;2023-08-17T06:10:10;18.00;99.90
16879;DHT22;8556;52.218;9.884;2023-08-17T06:12:37;17.90;99.90
16879;DHT22;8556;52.218;9.884;2023-08-17T06:15:06;18.00;99.90
16879;DHT22;8556;52.218;9.884;2023-08-17T06:17:33;18.00;99.90
16879;DHT22;8556;52.218;9.884;2023-08-17T06:20:00;17.90;99.90
16879;DHT22;8556;52.218;9.884;2023-08-17T06:22:28;18.00;99.90
16879;DHT22;8556;52.218;9.884;2023-08-17T06:24:55;18.00;99.90
16879;DHT22;8556;52.218;9.884;2023-08-17T06:27:21;18.00;99.90
16879;DHT22;8556;52.218;9.884;2023-08-17T06:29:48;18.00;99.90
16879;DHT22;8556;52.218;9.884;2023-08-17T06:32:17;18.00;99.90
16879;DHT22;8556;52.218;9.884;2023-08-17T06:34:43;18.00;99.90
16879;DHT22;8556;52.218;9.884;2023-08-17T06:37:10;18.10;99.90
16879;DHT22;8556;52.218;9.884;2023-08-17T06:39:37;17.90;99.90
16879;DHT22;8556;52.218;9.884;2023-08-17T06:42:04;18.10;99.90
16879;DHT22;8556;52.218;9.884;2023-08-17T06:44:31;18.10;99.90
16879;DHT22;8556;52.218;9.884;2023-08-17T06:46:58;18.10;99.90
16879;DHT22;8556;52.218;9.884;2023-08-17T06:49:26;18.10;99.90
16879;DHT22;8556;52.218;9.884;2023-08-17T06:51:54;18.10;99.90
16879;DHT22;8556;52.218;9.884;2023-08-17T06:54:20;18.10;99.90
16879;DHT22;8556;52.218;9.884;2023-08-17T06:56:47;18.10;99.90
16879;DHT22;8556;52.218;9.884;2023-08-17T06:59:14;18.10;99.90
16879;DHT22;8556;52.218;9.884;2023-08-17T07:01:41;18.10;99.90
16879;DHT22;8556;52.218;9.884;2023-08-17T07:04:07;18.20;99.90
16879;DHT22;8556;52.218;9.884;2023-08-17T07:06:36;18.20;99.90
16879;DHT22;8556;52.218;9.884;2023-08-17T07:09:03;18.20;99.90
16879;DHT22;8556;52.218;9.884;2023-08-17T07:11:30;18.20;99.90
16879;DHT22;8556;52.218;9.884;2023-08-17T07:13:57;18.20;99.90
16879;DHT22;8556;52.218;9.884;2023-08-17T07:16:24;18.30;99.90
16879;DHT22;8556;52.218;9.884;2023-08-17T07:18:50;18.30;99.90
16879;DHT22;8556;52.218;9.884;2023-08-17T07:21:17;18.20;99.90
16879;DHT22;8556;52.218;9.884;2023-08-17T07:23:45;18.30;99.90
16879;DHT22;8556;52.218;9.884;2023-08-17T07:26:13;18.30;99.90
16879;DHT22;8556;52.218;9.884;2023-08-17T07:28:40;18.30;99.90
16879;DHT22;8556;52.218;9.884;2023-08-17T07:31:06;18.20;99.90
16879;DHT22;8556;52.218;9.884;2023-08-17T07:33:33;18.30;99.90
16879;DHT22;8556;52.218;9.884;2023-08-17T07:36:00;18.30;99.90
16879;DHT22;8556;52.218;9.884;2023-08-17T07:38:27;18.40;99.90
16879;DHT22;8556;52.218;9.884;2023-08-17T07:40:56;18.30;99.90
16879;DHT22;8556;52.218;9.884;2023-08-17T07:43:22;18.40;99.90
16879;DHT22;8556;52.218;9.884;2023-08-17T07:45:53;18.30;99.90
16879;DHT22;8556;52.218;9.884;2023-08-17T07:48:20;18.40;99.90
16879;DHT22;8556;52.218;9.884;2023-08-17T07:50:49;18.40;99.90
16879;DHT22;8556;52.218;9.884;2023-08-17T07:53:16;18.40;99.90
16879;DHT22;8556;52.218;9.884;2023-08-17T07:55:42;18.40;99.90
16879;DHT22;8556;52.218;9.884;2023-08-17T07:58:11;18.40;99.90
16879;DHT22;8556;52.218;9.884;2023-08-17T08:00:37;18.40;99.90
16879;DHT22;8556;52.218;9.884;2023-08-17T08:03:04;18.40;99.90
16879;DHT22;8556;52.218;9.884;2023-08-17T08:05:31;18.40;99.90
16879;DHT22;8556;52.218;9.884;2023-08-17T08:07:58;18.40;99.90
16879;DHT22;8556;52.218;9.884;2023-08-17T08:10:25;18.40;99.90
16879;DHT22;8556;52.218;9.884;2023-08-17T08:12:53;18.40;99.90
16879;DHT22;8556;52.218;9.884;2023-08-17T08:15:21;18.40;99.90
16879;DHT22;8556;52.218;9.884;2023-08-17T08:17:48;18.40;99.90
16879;DHT22;8556;52.218;9.884;2023-08-17T08:20:15;18.40;99.90
16879;DHT22;8556;52.218;9.884;2023-08-17T08:22:42;18.50;99.90
16879;DHT22;8556;52.218;9.884;2023-08-17T08:25:10;18.50;99.90
16879;DHT22;8556;52.218;9.884;2023-08-17T08:27:36;18.40;99.90
16879;DHT22;8556;52.218;9.884;2023-08-17T08:30:04;18.40;99.90
16879;DHT22;8556;52.218;9.884;2023-08-17T08:32:33;18.40;99.90
16879;DHT22;8556;52.218;9.884;2023-08-17T08:34:59;18.50;99.90
16879;DHT22;8556;52.218;9.884;2023-08-17T08:37:26;18.40;99.90
16879;DHT22;8556;52.218;9.884;2023-08-17T08:39:55;18.40;99.90
16879;DHT22;8556;52.218;9.884;2023-08-17T08:42:22;18.50;99.90
16879;DHT22;8556;52.218;9.884;2023-08-17T08:44:50;18.30;99.90
16879;DHT22;8556;52.218;9.884;2023-08-17T08:47:17;18.30;99.90
16879;DHT22;8556;52.218;9.884;2023-08-17T08:49:49;18.20;99.90
16879;DHT22;8556;52.218;9.884;2023-08-17T08:52:21;18.30;99.90
16879;DHT22;8556;52.218;9.884;2023-08-17T08:54:50;18.30;99.90
16879;DHT22;8556;52.218;9.884;2023-08-17T08:57:17;18.30;99.90
16879;DHT22;8556;52.218;9.884;2023-08-17T08:59:45;18.30;99.90
16879;DHT22;8556;52.218;9.884;2023-08-17T09:02:15;18.20;99.90
16879;DHT22;8556;52.218;9.884;2023-08-17T09:04:42;18.20;99.90
16879;DHT22;8556;52.218;9.884;2023-08-17T09:07:12;18.30;99.90
16879;DHT22;8556;52.218;9.884;2023-08-17T09:09:39;18.20;99.90
16879;DHT22;8556;52.218;9.884;2023-08-17T09:12:07;18.30;99.90
16879;DHT22;8556;52.218;9.884;2023-08-17T09:14:35;18.30;99.90
16879;DHT22;8556;52.218;9.884;2023-08-17T09:17:03;18.30;99.90
16879;DHT22;8556;52.218;9.884;2023-08-17T09:19:31;18.30;99.90
16879;DHT22;8556;52.218;9.884;2023-08-17T09:21:58;18.30;99.90
16879;DHT22;8556;52.218;9.884;2023-08-17T09:24:33;18.20;99.90
16879;DHT22;8556;52.218;9.884;2023-08-17T09:27:00;18.30;99.90
16879;DHT22;8556;52.218;9.884;2023-08-17T09:29:27;18.30;99.90
16879;DHT22;8556;52.218;9.884;2023-08-17T09:31:57;18.30;99.90
16879;DHT22;8556;52.218;9.884;2023-08-17T09:34:24;18.30;99.90
16879;DHT22;8556;52.218;9.884;2023-08-17T09:36:51;18.20;99.90
16879;DHT22;8556;52.218;9.884;2023-08-17T09:39:18;18.30;99.90
16879;DHT22;8556;52.218;9.884;2023-08-17T09:41:46;18.40;99.90
16879;DHT22;8556;52.218;9.884;2023-08-17T09:44:13;18.50;99.90
16879;DHT22;8556;52.218;9.884;2023-08-17T09:46:42;18.50;99.90
16879;DHT22;8556;52.218;9.884;2023-08-17T09:49:09;18.50;99.90
16879;DHT22;8556;52.218;9.884;2023-08-17T09:51:36;18.60;99.90
16879;DHT22;8556;52.218;9.884;2023-08-17T09:54:03;18.50;99.90
16879;DHT22;8556;52.218;9.884;2023-08-17T09:56:31;18.50;99.90
16879;DHT22;8556;52.218;9.884;2023-08-17T09:59:00;18.60;99.90
16879;DHT22;8556;52.218;9.884;2023-08-17T10:01:29;18.60;99.90
16879;DHT22;8556;52.218;9.884;2023-08-17T10:03:57;18.80;99.90
16879;DHT22;8556;52.218;9.884;2023-08-17T10:06:26;18.70;99.90
16879;DHT22;8556;52.218;9.884;2023-08-17T10:08:56;18.70;99.90
16879;DHT22;8556;52.218;9.884;2023-08-17T10:11:26;18.90;99.90
16879;DHT22;8556;52.218;9.884;2023-08-17T10:13:57;18.80;99.90
16879;DHT22;8556;52.218;9.884;2023-08-17T10:16:32;18.80;99.90
16879;DHT22;8556;52.218;9.884;2023-08-17T10:19:08;18.80;99.90
16879;DHT22;8556;52.218;9.884;2023-08-17T10:21:41;18.60;99.90
16879;DHT22;8556;52.218;9.884;2023-08-17T10:24:10;18.60;99.90
16879;DHT22;8556;52.218;9.884;2023-08-17T10:26:38;18.60;99.90
16879;DHT22;8556;52.218;9.884;2023-08-17T10:29:06;18.60;99.90
16879;DHT22;8556;52.218;9.884;2023-08-17T10:31:35;18.50;99.90
16879;DHT22;8556;52.218;9.884;2023-08-17T10:34:02;18.60;99.90
16879;DHT22;8556;52.218;9.884;2023-08-17T10:36:30;18.60;99.90
16879;DHT22;8556;52.218;9.884;2023-08-17T10:39:20;18.60;99.90
16879;DHT22;8556;52.218;9.884;2023-08-17T10:41:48;18.70;99.90
16879;DHT22;8556;52.218;9.884;2023-08-17T10:44:17;18.80;99.90
16879;DHT22;8556;52.218;9.884;2023-08-17T10:46:45;18.70;99.90
16879;DHT22;8556;52.218;9.884;2023-08-17T10:49:28;18.80;99.90
16879;DHT22;8556;52.218;9.884;2023-08-17T10:52:02;19.00;99.90
16879;DHT22;8556;52.218;9.884;2023-08-17T10:54:36;18.70;99.90
16879;DHT22;8556;52.218;9.884;2023-08-17T10:57:24;18.70;99.90
16879;DHT22;8556;52.218;9.884;2023-08-17T11:00:05;18.40;99.90
16879;DHT22;8556;52.218;9.884;2023-08-17T11:02:34;18.30;99.90
16879;DHT22;8556;52.218;9.884;2023-08-17T11:05:01;18.20;99.90
16879;DHT22;8556;52.218;9.884;2023-08-17T11:07:38;18.10;99.90
16879;DHT22;8556;52.218;9.884;2023-08-17T11:10:11;18.10;99.90
16879;DHT22;8556;52.218;9.884;2023-08-17T11:12:41;18.00;99.90
16879;DHT22;8556;52.218;9.884;2023-08-17T11:15:09;17.90;99.90
16879;DHT22;8556;52.218;9.884;2023-08-17T11:17:37;17.90;99.90
16879;DHT22;8556;52.218;9.884;2023-08-17T11:20:05;17.90;99.90
16879;DHT22;8556;52.218;9.884;2023-08-17T11:22:34;17.80;99.90
16879;DHT22;8556;52.218;9.884;2023-08-17T11:25:01;17.80;99.90
16879;DHT22;8556;52.218;9.884;2023-08-17T11:27:30;17.70;99.90
16879;DHT22;8556;52.218;9.884;2023-08-17T11:29:57;17.70;99.90
16879;DHT22;8556;52.218;9.884;2023-08-17T11:32:24;17.50;99.90
16879;DHT22;8556;52.218;9.884;2023-08-17T11:34:53;17.50;99.90
16879;DHT22;8556;52.218;9.884;2023-08-17T11:37:21;17.50;99.90
16879;DHT22;8556;52.218;9.884;2023-08-17T11:39:49;17.50;99.90
16879;DHT22;8556;52.218;9.884;2023-08-17T11:42:16;17.30;99.90
16879;DHT22;8556;52.218;9.884;2023-08-17T11:44:43;17.30;99.90
16879;DHT22;8556;52.218;9.884;2023-08-17T11:47:10;17.20;99.90
16879;DHT22;8556;52.218;9.884;2023-08-17T11:49:37;17.10;99.90
16879;DHT22;8556;52.218;9.884;2023-08-17T11:52:09;17.10;99.90
16879;DHT22;8556;52.218;9.884;2023-08-17T11:54:40;17.20;99.90
16879;DHT22;8556;52.218;9.884;2023-08-17T11:57:07;17.20;99.90
16879;DHT22;8556;52.218;9.884;2023-08-17T11:59:33;17.20;99.90
16879;DHT22;8556;52.218;9.884;2023-08-17T12:02:01;17.20;99.90
16879;DHT22;8556;52.218;9.884;2023-08-17T12:04:28;17.00;99.90
16879;DHT22;8556;52.218;9.884;2023-08-17T12:06:55;17.20;99.90
16879;DHT22;8556;52.218;9.884;2023-08-17T12:09:23;17.00;99.90
16879;DHT22;8556;52.218;9.884;2023-08-17T12:11:58;17.20;99.90
16879;DHT22;8556;52.218;9.884;2023-08-17T12:14:26;17.00;99.90
16879;DHT22;8556;52.218;9.884;2023-08-17T12:16:54;17.20;99.90
16879;DHT22;8556;52.218;9.884;2023-08-17T12:19:21;17.30;99.90
16879;DHT22;8556;52.218;9.884;2023-08-17T12:21:49;17.30;99.90
16879;DHT22;8556;52.218;9.884;2023-08-17T12:24:16;17.30;99.90
16879;DHT22;8556;52.218;9.884;2023-08-17T12:26:46;17.30;99.90
16879;DHT22;8556;52.218;9.884;2023-08-17T12:29:13;17.30;99.90
16879;DHT22;8556;52.218;9.884;2023-08-17T12:31:40;17.30;99.90
16879;DHT22;8556;52.218;9.884;2023-08-17T12:34:07;17.20;99.90
16879;DHT22;8556;52.218;9.884;2023-08-17T12:36:34;17.30;99.90
16879;DHT22;8556;52.218;9.884;2023-08-17T12:39:03;17.30;99.90
16879;DHT22;8556;52.218;9.884;2023-08-17T12:41:31;17.30;99.90
16879;DHT22;8556;52.218;9.884;2023-08-17T12:43:59;17.30;99.90
16879;DHT22;8556;52.218;9.884;2023-08-17T12:46:26;17.30;99.90
16879;DHT22;8556;52.218;9.884;2023-08-17T12:48:53;17.20;99.90
16879;DHT22;8556;52.218;9.884;2023-08-17T12:51:20;17.20;99.90
16879;DHT22;8556;52.218;9.884;2023-08-17T12:53:46;17.30;99.90
16879;DHT22;8556;52.218;9.884;2023-08-17T12:56:13;17.40;99.90
16879;DHT22;8556;52.218;9.884;2023-08-17T12:58:40;17.40;99.90
16879;DHT22;8556;52.218;9.884;2023-08-17T13:01:08;17.50;99.90
16879;DHT22;8556;52.218;9.884;2023-08-17T13:03:35;17.40;99.90
16879;DHT22;8556;52.218;9.884;2023-08-17T13:06:02;17.30;99.90
16879;DHT22;8556;52.218;9.884;2023-08-17T13:08:29;17.40;99.90
16879;DHT22;8556;52.218;9.884;2023-08-17T13:10:56;17.20;99.90
16879;DHT22;8556;52.218;9.884;2023-08-17T13:13:23;17.20;99.90
16879;DHT22;8556;52.218;9.884;2023-08-17T13:15:50;17.30;99.90
16879;DHT22;8556;52.218;9.884;2023-08-17T13:18:18;17.30;99.90
16879;DHT22;8556;52.218;9.884;2023-08-17T13:20:45;17.40;99.90
16879;DHT22;8556;52.218;9.884;2023-08-17T13:23:11;17.40;99.90
16879;DHT22;8556;52.218;9.884;2023-08-17T13:25:38;17.40;99.90
16879;DHT22;8556;52.218;9.884;2023-08-17T13:28:05;17.40;99.90
16879;DHT22;8556;52.218;9.884;2023-08-17T13:30:32;17.30;99.90
16879;DHT22;8556;52.218;9.884;2023-08-17T13:32:59;17.30;99.90
16879;DHT22;8556;52.218;9.884;2023-08-17T13:35:27;17.30;99.90
16879;DHT22;8556;52.218;9.884;2023-08-17T13:37:54;17.20;99.90
16879;DHT22;8556;52.218;9.884;2023-08-17T13:40:23;17.30;99.90
16879;DHT22;8556;52.218;9.884;2023-08-17T13:42:50;17.20;99.90
16879;DHT22;8556;52.218;9.884;2023-08-17T13:45:16;17.30;99.90
16879;DHT22;8556;52.218;9.884;2023-08-17T13:47:43;17.20;99.90
16879;DHT22;8556;52.218;9.884;2023-08-17T13:50:10;17.10;99.90
16879;DHT22;8556;52.218;9.884;2023-08-17T13:52:38;17.10;99.90
16879;DHT22;8556;52.218;9.884;2023-08-17T13:55:06;17.10;99.90
16879;DHT22;8556;52.218;9.884;2023-08-17T13:57:33;17.10;99.90
16879;DHT22;8556;52.218;9.884;2023-08-17T14:00:00;17.10;99.90
16879;DHT22;8556;52.218;9.884;2023-08-17T14:02:27;17.10;99.90
16879;DHT22;8556;52.218;9.884;2023-08-17T14:04:53;17.10;99.90
16879;DHT22;8556;52.218;9.884;2023-08-17T14:07:20;17.10;99.90
16879;DHT22;8556;52.218;9.884;2023-08-17T14:09:48;17.10;99.90
16879;DHT22;8556;52.218;9.884;2023-08-17T14:12:15;17.00;99.90
16879;DHT22;8556;52.218;9.884;2023-08-17T14:14:42;17.10;99.90
16879;DHT22;8556;52.218;9.884;2023-08-17T14:17:09;17.10;99.90
16879;DHT22;8556;52.218;9.884;2023-08-17T14:19:36;17.20;99.90
16879;DHT22;8556;52.218;9.884;2023-08-17T14:22:02;17.20;99.90
16879;DHT22;8556;52.218;9.884;2023-08-17T14:24:29;17.20;99.90
16879;DHT22;8556;52.218;9.884;2023-08-17T14:26:57;17.20;99.90
16879;DHT22;8556;52.218;9.884;2023-08-17T14:29:24;17.30;99.90
16879;DHT22;8556;52.218;9.884;2023-08-17T14:31:51;17.30;99.90
16879;DHT22;8556;52.218;9.884;2023-08-17T14:34:18;17.30;99.90
16879;DHT22;8556;52.218;9.884;2023-08-17T14:36:46;17.30;99.90
16879;DHT22;8556;52.218;9.884;2023-08-17T14:39:13;17.40;99.90
16879;DHT22;8556;52.218;9.884;2023-08-17T14:41:40;17.40;99.90
16879;DHT22;8556;52.218;9.884;2023-08-17T14:44:08;17.50;99.90
16879;DHT22;8556;52.218;9.884;2023-08-17T14:46:36;17.50;99.90
16879;DHT22;8556;52.218;9.884;2023-08-17T14:49:04;17.50;99.90
16879;DHT22;8556;52.218;9.884;2023-08-17T14:51:37;17.30;99.90
16879;DHT22;8556;52.218;9.884;2023-08-17T14:54:04;17.50;99.90
16879;DHT22;8556;52.218;9.884;2023-08-17T14:56:31;17.50;99.90
16879;DHT22;8556;52.218;9.884;2023-08-17T14:58:58;17.50;99.90
16879;DHT22;8556;52.218;9.884;2023-08-17T15:01:26;17.40;99.90
16879;DHT22;8556;52.218;9.884;2023-08-17T15:03:53;17.50;99.90
16879;DHT22;8556;52.218;9.884;2023-08-17T15:06:20;17.40;99.90
16879;DHT22;8556;52.218;9.884;2023-08-17T15:08:49;17.50;99.90
16879;DHT22;8556;52.218;9.884;2023-08-17T15:11:16;17.60;99.90
16879;DHT22;8556;52.218;9.884;2023-08-17T15:13:42;17.50;99.90
16879;DHT22;8556;52.218;9.884;2023-08-17T15:16:10;17.30;99.90
16879;DHT22;8556;52.218;9.884;2023-08-17T15:18:38;17.50;99.90
16879;DHT22;8556;52.218;9.884;2023-08-17T15:21:05;17.50;99.90
16879;DHT22;8556;52.218;9.884;2023-08-17T15:23:49;17.50;99.90
16879;DHT22;8556;52.218;9.884;2023-08-17T15:26:16;17.50;99.90
16879;DHT22;8556;52.218;9.884;2023-08-17T15:28:43;17.40;99.90
16879;DHT22;8556;52.218;9.884;2023-08-17T15:31:10;17.40;99.90
16879;DHT22;8556;52.218;9.884;2023-08-17T15:33:40;17.50;99.90
16879;DHT22;8556;52.218;9.884;2023-08-17T15:36:07;17.50;99.90
16879;DHT22;8556;52.218;9.884;2023-08-17T15:38:34;17.40;99.90
16879;DHT22;8556;52.218;9.884;2023-08-17T15:41:01;17.50;99.90
16879;DHT22;8556;52.218;9.884;2023-08-17T15:43:29;17.50;99.90
16879;DHT22;8556;52.218;9.884;2023-08-17T15:45:56;17.50;99.90
16879;DHT22;8556;52.218;9.884;2023-08-17T15:48:23;17.40;99.90
16879;DHT22;8556;52.218;9.884;2023-08-17T15:50:51;17.50;99.90